sensor_id;sensor_type;location;lat;lon;timestamp;P1;durP1;ratioP1;P2;durP2;ratioP2
10458;SDS011;5277;48.722;8.736;2023-02-23T00:02:06;15.45;;;8.55;;
10458;SDS011;5277;48.722;8.736;2023-02-23T00:04:39;18.50;;;8.43;;
10458;SDS011;5277;48.722;8.736;2023-02-23T00:07:17;12.77;;;8.57;;
10458;SDS011;5277;48.722;8.736;2023-02-23T00:09:45;18.65;;;8.27;;
10458;SDS011;5277;48.722;8.736;2023-02-23T00:12:16;13.50;;;8.63;;
10458;SDS011;5277;48.722;8.736;2023-02-23T00:14:56;12.90;;;8.93;;
10458;SDS011;5277;48.722;8.736;2023-02-23T00:17:27;11.80;;;8.75;;
10458;SDS011;5277;48.722;8.736;2023-02-23T00:19:57;15.32;;;9.73;;
10458;SDS011;5277;48.722;8.736;2023-02-23T00:22:32;19.42;;;8.65;;
10458;SDS011;5277;48.722;8.736;2023-02-23T00:24:58;15.40;;;9.02;;
10458;SDS011;5277;48.722;8.736;2023-02-23T00:27:43;15.30;;;8.73;;
10458;SDS011;5277;48.722;8.736;2023-02-23T00:30:12;20.48;;;9.15;;
10458;SDS011;5277;48.722;8.736;2023-02-23T00:32:44;18.95;;;9.50;;
10458;SDS011;5277;48.722;8.736;2023-02-23T00:35:16;12.95;;;8.75;;
10458;SDS011;5277;48.722;8.736;2023-02-23T00:37:50;13.13;;;8.68;;
10458;SDS011;5277;48.722;8.736;2023-02-23T00:40:30;14.50;;;8.25;;
10458;SDS011;5277;48.722;8.736;2023-02-23T00:43:05;16.45;;;9.07;;
10458;SDS011;5277;48.722;8.736;2023-02-23T00:45:55;15.50;;;7.95;;
10458;SDS011;5277;48.722;8.736;2023-02-23T00:48:21;13.00;;;8.82;;
10458;SDS011;5277;48.722;8.736;2023-02-23T00:50:49;14.38;;;8.52;;
10458;SDS011;5277;48.722;8.736;2023-02-23T00:53:31;14.50;;;8.27;;
10458;SDS011;5277;48.722;8.736;2023-02-23T00:56:03;12.38;;;8.45;;
10458;SDS011;5277;48.722;8.736;2023-02-23T00:58:38;15.23;;;7.70;;
10458;SDS011;5277;48.722;8.736;2023-02-23T01:01:10;16.83;;;8.90;;
10458;SDS011;5277;48.722;8.736;2023-02-23T01:03:43;13.73;;;8.63;;
10458;SDS011;5277;48.722;8.736;2023-02-23T01:06:10;13.07;;;8.30;;
10458;SDS011;5277;48.722;8.736;2023-02-23T01:08:45;19.50;;;8.82;;
10458;SDS011;5277;48.722;8.736;2023-02-23T01:11:42;16.33;;;8.43;;
10458;SDS011;5277;48.722;8.736;2023-02-23T01:14:13;16.55;;;8.40;;
10458;SDS011;5277;48.722;8.736;2023-02-23T01:16:46;16.25;;;8.57;;
10458;SDS011;5277;48.722;8.736;2023-02-23T01:19:16;12.55;;;7.75;;
10458;SDS011;5277;48.722;8.736;2023-02-23T01:21:47;17.63;;;9.05;;
10458;SDS011;5277;48.722;8.736;2023-02-23T01:24:15;15.55;;;9.50;;
10458;SDS011;5277;48.722;8.736;2023-02-23T01:26:42;13.73;;;9.85;;
10458;SDS011;5277;48.722;8.736;2023-02-23T01:29:17;15.20;;;8.43;;
10458;SDS011;5277;48.722;8.736;2023-02-23T01:31:47;15.25;;;8.73;;
10458;SDS011;5277;48.722;8.736;2023-02-23T01:34:19;11.98;;;8.68;;
10458;SDS011;5277;48.722;8.736;2023-02-23T01:36:45;12.93;;;8.15;;
10458;SDS011;5277;48.722;8.736;2023-02-23T01:39:21;16.58;;;9.77;;
10458;SDS011;5277;48.722;8.736;2023-02-23T01:41:49;20.88;;;10.90;;
10458;SDS011;5277;48.722;8.736;2023-02-23T01:46:46;16.27;;;9.63;;
10458;SDS011;5277;48.722;8.736;2023-02-23T01:49:17;15.98;;;10.00;;
10458;SDS011;5277;48.722;8.736;2023-02-23T01:52:02;17.20;;;8.93;;
10458;SDS011;5277;48.722;8.736;2023-02-23T01:54:41;15.05;;;9.18;;
10458;SDS011;5277;48.722;8.736;2023-02-23T01:57:37;12.32;;;8.35;;
10458;SDS011;5277;48.722;8.736;2023-02-23T02:00:08;14.75;;;9.07;;
10458;SDS011;5277;48.722;8.736;2023-02-23T02:02:39;12.23;;;8.45;;
10458;SDS011;5277;48.722;8.736;2023-02-23T02:05:15;11.65;;;8.02;;
10458;SDS011;5277;48.722;8.736;2023-02-23T02:07:45;13.05;;;8.52;;
10458;SDS011;5277;48.722;8.736;2023-02-23T02:10:30;15.85;;;8.95;;
10458;SDS011;5277;48.722;8.736;2023-02-23T02:13:13;16.10;;;9.05;;
10458;SDS011;5277;48.722;8.736;2023-02-23T02:16:34;15.25;;;8.57;;
10458;SDS011;5277;48.722;8.736;2023-02-23T02:38:52;13.30;;;8.13;;
10458;SDS011;5277;48.722;8.736;2023-02-23T02:41:25;12.85;;;8.27;;
10458;SDS011;5277;48.722;8.736;2023-02-23T02:44:17;12.35;;;8.05;;
10458;SDS011;5277;48.722;8.736;2023-02-23T02:53:06;13.20;;;8.75;;
10458;SDS011;5277;48.722;8.736;2023-02-23T02:55:36;13.02;;;8.00;;
10458;SDS011;5277;48.722;8.736;2023-02-23T02:58:10;12.43;;;9.48;;
10458;SDS011;5277;48.722;8.736;2023-02-23T03:00:40;14.13;;;8.48;;
10458;SDS011;5277;48.722;8.736;2023-02-23T03:06:37;11.95;;;8.32;;
10458;SDS011;5277;48.722;8.736;2023-02-23T03:09:57;18.60;;;8.32;;
10458;SDS011;5277;48.722;8.736;2023-02-23T03:18:59;12.15;;;8.63;;
10458;SDS011;5277;48.722;8.736;2023-02-23T03:25:41;14.98;;;7.97;;
10458;SDS011;5277;48.722;8.736;2023-02-23T03:28:36;15.45;;;8.30;;
10458;SDS011;5277;48.722;8.736;2023-02-23T03:31:38;15.50;;;8.43;;
10458;SDS011;5277;48.722;8.736;2023-02-23T03:34:39;13.25;;;8.48;;
10458;SDS011;5277;48.722;8.736;2023-02-23T03:37:49;12.80;;;9.07;;
10458;SDS011;5277;48.722;8.736;2023-02-23T03:40:43;14.82;;;8.70;;
10458;SDS011;5277;48.722;8.736;2023-02-23T03:43:38;12.45;;;8.73;;
10458;SDS011;5277;48.722;8.736;2023-02-23T03:46:31;10.90;;;8.00;;
10458;SDS011;5277;48.722;8.736;2023-02-23T03:49:18;11.20;;;8.73;;
10458;SDS011;5277;48.722;8.736;2023-02-23T03:52:06;17.95;;;8.00;;
10458;SDS011;5277;48.722;8.736;2023-02-23T03:55:04;11.70;;;8.77;;
10458;SDS011;5277;48.722;8.736;2023-02-23T03:58:07;11.85;;;8.60;;
10458;SDS011;5277;48.722;8.736;2023-02-23T04:00:57;11.93;;;8.50;;
10458;SDS011;5277;48.722;8.736;2023-02-23T04:03:49;12.77;;;9.48;;
10458;SDS011;5277;48.722;8.736;2023-02-23T04:06:36;15.65;;;9.23;;
10458;SDS011;5277;48.722;8.736;2023-02-23T04:09:26;13.23;;;9.25;;
10458;SDS011;5277;48.722;8.736;2023-02-23T04:12:24;17.33;;;10.23;;
10458;SDS011;5277;48.722;8.736;2023-02-23T04:15:19;12.52;;;9.13;;
10458;SDS011;5277;48.722;8.736;2023-02-23T04:18:06;12.23;;;9.45;;
10458;SDS011;5277;48.722;8.736;2023-02-23T04:20:36;15.52;;;9.27;;
10458;SDS011;5277;48.722;8.736;2023-02-23T04:23:01;17.52;;;11.13;;
10458;SDS011;5277;48.722;8.736;2023-02-23T04:25:29;15.75;;;10.98;;
10458;SDS011;5277;48.722;8.736;2023-02-23T04:28:01;21.77;;;13.07;;
10458;SDS011;5277;48.722;8.736;2023-02-23T04:30:51;17.33;;;10.52;;
10458;SDS011;5277;48.722;8.736;2023-02-23T04:33:17;17.63;;;11.55;;
10458;SDS011;5277;48.722;8.736;2023-02-23T04:35:43;17.50;;;9.25;;
10458;SDS011;5277;48.722;8.736;2023-02-23T04:41:27;12.95;;;9.50;;
10458;SDS011;5277;48.722;8.736;2023-02-23T04:43:56;16.92;;;9.82;;
10458;SDS011;5277;48.722;8.736;2023-02-23T04:46:45;11.43;;;8.88;;
10458;SDS011;5277;48.722;8.736;2023-02-23T04:49:11;14.23;;;10.10;;
10458;SDS011;5277;48.722;8.736;2023-02-23T04:51:36;13.85;;;9.90;;
10458;SDS011;5277;48.722;8.736;2023-02-23T04:54:02;12.80;;;9.43;;
10458;SDS011;5277;48.722;8.736;2023-02-23T04:56:29;16.70;;;10.00;;
10458;SDS011;5277;48.722;8.736;2023-02-23T04:58:57;15.02;;;9.48;;
10458;SDS011;5277;48.722;8.736;2023-02-23T05:01:25;15.52;;;9.30;;
10458;SDS011;5277;48.722;8.736;2023-02-23T05:03:55;18.45;;;9.85;;
10458;SDS011;5277;48.722;8.736;2023-02-23T05:06:24;16.17;;;9.77;;
10458;SDS011;5277;48.722;8.736;2023-02-23T05:08:55;14.50;;;9.57;;
10458;SDS011;5277;48.722;8.736;2023-02-23T05:11:23;15.23;;;10.70;;
10458;SDS011;5277;48.722;8.736;2023-02-23T05:13:56;19.88;;;10.70;;
10458;SDS011;5277;48.722;8.736;2023-02-23T05:16:33;15.65;;;10.70;;
10458;SDS011;5277;48.722;8.736;2023-02-23T05:19:05;14.93;;;9.98;;
10458;SDS011;5277;48.722;8.736;2023-02-23T05:21:46;14.18;;;9.68;;
10458;SDS011;5277;48.722;8.736;2023-02-23T05:24:22;14.00;;;9.60;;
10458;SDS011;5277;48.722;8.736;2023-02-23T05:27:04;17.63;;;10.70;;
10458;SDS011;5277;48.722;8.736;2023-02-23T05:29:41;15.90;;;10.45;;
10458;SDS011;5277;48.722;8.736;2023-02-23T05:35:15;16.00;;;10.95;;
10458;SDS011;5277;48.722;8.736;2023-02-23T05:37:41;14.07;;;9.43;;
10458;SDS011;5277;48.722;8.736;2023-02-23T05:40:14;17.45;;;10.73;;
10458;SDS011;5277;48.722;8.736;2023-02-23T05:42:42;18.35;;;11.23;;
10458;SDS011;5277;48.722;8.736;2023-02-23T05:45:21;13.88;;;9.70;;
10458;SDS011;5277;48.722;8.736;2023-02-23T05:47:49;15.68;;;10.18;;
10458;SDS011;5277;48.722;8.736;2023-02-23T05:50:40;19.90;;;10.63;;
10458;SDS011;5277;48.722;8.736;2023-02-23T05:53:14;13.52;;;9.65;;
10458;SDS011;5277;48.722;8.736;2023-02-23T05:55:39;12.63;;;9.45;;
10458;SDS011;5277;48.722;8.736;2023-02-23T05:58:34;19.48;;;10.68;;
10458;SDS011;5277;48.722;8.736;2023-02-23T06:01:12;14.90;;;10.48;;
10458;SDS011;5277;48.722;8.736;2023-02-23T06:03:37;14.45;;;10.27;;
10458;SDS011;5277;48.722;8.736;2023-02-23T06:06:03;14.43;;;10.20;;
10458;SDS011;5277;48.722;8.736;2023-02-23T06:08:34;14.88;;;10.35;;
10458;SDS011;5277;48.722;8.736;2023-02-23T06:11:08;17.55;;;10.32;;
10458;SDS011;5277;48.722;8.736;2023-02-23T06:13:36;16.70;;;10.52;;
10458;SDS011;5277;48.722;8.736;2023-02-23T06:16:15;14.38;;;9.88;;
10458;SDS011;5277;48.722;8.736;2023-02-23T06:19:12;19.55;;;10.90;;
10458;SDS011;5277;48.722;8.736;2023-02-23T06:21:46;17.98;;;10.75;;
10458;SDS011;5277;48.722;8.736;2023-02-23T06:24:32;16.60;;;10.55;;
10458;SDS011;5277;48.722;8.736;2023-02-23T06:27:07;15.85;;;11.52;;
10458;SDS011;5277;48.722;8.736;2023-02-23T06:32:24;19.45;;;11.13;;
10458;SDS011;5277;48.722;8.736;2023-02-23T06:35:35;22.63;;;12.88;;
10458;SDS011;5277;48.722;8.736;2023-02-23T06:38:22;21.50;;;12.98;;
10458;SDS011;5277;48.722;8.736;2023-02-23T06:44:17;21.27;;;12.82;;
10458;SDS011;5277;48.722;8.736;2023-02-23T06:46:54;21.25;;;12.32;;
10458;SDS011;5277;48.722;8.736;2023-02-23T06:49:30;22.23;;;13.52;;
10458;SDS011;5277;48.722;8.736;2023-02-23T06:52:05;23.80;;;13.23;;
10458;SDS011;5277;48.722;8.736;2023-02-23T06:54:37;21.27;;;12.63;;
10458;SDS011;5277;48.722;8.736;2023-02-23T06:57:09;22.30;;;13.70;;
10458;SDS011;5277;48.722;8.736;2023-02-23T06:59:41;24.70;;;14.23;;
10458;SDS011;5277;48.722;8.736;2023-02-23T07:02:09;22.75;;;14.23;;
10458;SDS011;5277;48.722;8.736;2023-02-23T07:08:18;24.25;;;13.90;;
10458;SDS011;5277;48.722;8.736;2023-02-23T07:10:49;20.08;;;13.68;;
10458;SDS011;5277;48.722;8.736;2023-02-23T07:13:15;29.27;;;14.75;;
10458;SDS011;5277;48.722;8.736;2023-02-23T07:15:48;26.25;;;15.23;;
10458;SDS011;5277;48.722;8.736;2023-02-23T07:18:21;21.83;;;15.05;;
10458;SDS011;5277;48.722;8.736;2023-02-23T07:20:49;21.40;;;14.57;;
10458;SDS011;5277;48.722;8.736;2023-02-23T07:23:20;20.70;;;13.98;;
10458;SDS011;5277;48.722;8.736;2023-02-23T07:25:49;23.80;;;14.50;;
10458;SDS011;5277;48.722;8.736;2023-02-23T07:28:18;22.67;;;14.18;;
10458;SDS011;5277;48.722;8.736;2023-02-23T07:30:56;25.55;;;15.20;;
10458;SDS011;5277;48.722;8.736;2023-02-23T07:33:25;22.48;;;14.10;;
10458;SDS011;5277;48.722;8.736;2023-02-23T07:36:02;19.25;;;14.27;;
10458;SDS011;5277;48.722;8.736;2023-02-23T07:38:40;24.25;;;15.38;;
10458;SDS011;5277;48.722;8.736;2023-02-23T07:41:14;20.80;;;14.55;;
10458;SDS011;5277;48.722;8.736;2023-02-23T07:43:58;26.52;;;16.63;;
10458;SDS011;5277;48.722;8.736;2023-02-23T07:46:38;24.00;;;14.02;;
10458;SDS011;5277;48.722;8.736;2023-02-23T07:49:27;20.20;;;13.77;;
10458;SDS011;5277;48.722;8.736;2023-02-23T07:51:58;21.23;;;14.20;;
10458;SDS011;5277;48.722;8.736;2023-02-23T07:54:24;22.15;;;14.80;;
10458;SDS011;5277;48.722;8.736;2023-02-23T07:56:50;18.20;;;13.68;;
10458;SDS011;5277;48.722;8.736;2023-02-23T07:59:28;19.83;;;14.30;;
10458;SDS011;5277;48.722;8.736;2023-02-23T08:02:03;19.90;;;13.38;;
10458;SDS011;5277;48.722;8.736;2023-02-23T08:04:28;22.13;;;14.68;;
10458;SDS011;5277;48.722;8.736;2023-02-23T08:07:02;19.83;;;13.63;;
10458;SDS011;5277;48.722;8.736;2023-02-23T08:09:56;20.73;;;13.55;;
10458;SDS011;5277;48.722;8.736;2023-02-23T08:12:39;19.52;;;14.55;;
10458;SDS011;5277;48.722;8.736;2023-02-23T08:15:38;21.15;;;13.48;;
10458;SDS011;5277;48.722;8.736;2023-02-23T08:18:06;21.40;;;13.38;;
10458;SDS011;5277;48.722;8.736;2023-02-23T08:20:38;19.05;;;13.25;;
10458;SDS011;5277;48.722;8.736;2023-02-23T08:23:15;20.00;;;13.55;;
10458;SDS011;5277;48.722;8.736;2023-02-23T08:26:34;20.08;;;13.48;;
10458;SDS011;5277;48.722;8.736;2023-02-23T08:32:06;22.77;;;13.80;;
10458;SDS011;5277;48.722;8.736;2023-02-23T08:34:54;17.67;;;12.93;;
10458;SDS011;5277;48.722;8.736;2023-02-23T08:38:06;16.65;;;12.57;;
10458;SDS011;5277;48.722;8.736;2023-02-23T08:40:37;17.55;;;12.90;;
10458;SDS011;5277;48.722;8.736;2023-02-23T08:43:20;22.95;;;14.05;;
10458;SDS011;5277;48.722;8.736;2023-02-23T08:46:08;17.13;;;12.90;;
10458;SDS011;5277;48.722;8.736;2023-02-23T08:48:55;19.75;;;13.00;;
10458;SDS011;5277;48.722;8.736;2023-02-23T08:52:11;18.27;;;13.48;;
10458;SDS011;5277;48.722;8.736;2023-02-23T08:55:03;21.17;;;13.02;;
10458;SDS011;5277;48.722;8.736;2023-02-23T08:58:07;18.50;;;12.68;;
10458;SDS011;5277;48.722;8.736;2023-02-23T09:01:14;15.70;;;12.00;;
10458;SDS011;5277;48.722;8.736;2023-02-23T09:03:56;17.02;;;12.43;;
10458;SDS011;5277;48.722;8.736;2023-02-23T09:06:33;16.25;;;12.05;;
10458;SDS011;5277;48.722;8.736;2023-02-23T09:09:31;17.00;;;12.15;;
10458;SDS011;5277;48.722;8.736;2023-02-23T09:15:34;14.80;;;11.15;;
10458;SDS011;5277;48.722;8.736;2023-02-23T09:18:38;14.57;;;10.90;;
10458;SDS011;5277;48.722;8.736;2023-02-23T09:21:15;13.48;;;10.32;;
10458;SDS011;5277;48.722;8.736;2023-02-23T09:27:09;13.77;;;10.27;;
10458;SDS011;5277;48.722;8.736;2023-02-23T09:29:53;15.73;;;9.52;;
10458;SDS011;5277;48.722;8.736;2023-02-23T09:32:50;11.55;;;9.23;;
10458;SDS011;5277;48.722;8.736;2023-02-23T09:38:56;13.48;;;9.05;;
10458;SDS011;5277;48.722;8.736;2023-02-23T11:11:55;11.27;;;5.35;;
10458;SDS011;5277;48.722;8.736;2023-02-23T11:14:57;8.30;;;4.63;;
10458;SDS011;5277;48.722;8.736;2023-02-23T11:18:03;10.60;;;5.18;;
10458;SDS011;5277;48.722;8.736;2023-02-23T11:21:33;10.38;;;5.05;;
10458;SDS011;5277;48.722;8.736;2023-02-23T11:25:11;9.40;;;4.10;;
10458;SDS011;5277;48.722;8.736;2023-02-23T11:44:01;10.32;;;4.38;;
10458;SDS011;5277;48.722;8.736;2023-02-23T11:46:36;8.05;;;4.68;;
10458;SDS011;5277;48.722;8.736;2023-02-23T11:49:22;8.60;;;4.20;;
10458;SDS011;5277;48.722;8.736;2023-02-23T11:52:18;6.40;;;3.88;;
10458;SDS011;5277;48.722;8.736;2023-02-23T11:54:51;12.55;;;4.68;;
10458;SDS011;5277;48.722;8.736;2023-02-23T11:57:38;8.35;;;3.65;;
10458;SDS011;5277;48.722;8.736;2023-02-23T12:00:29;9.57;;;3.53;;
10458;SDS011;5277;48.722;8.736;2023-02-23T12:02:58;10.02;;;3.35;;
10458;SDS011;5277;48.722;8.736;2023-02-23T12:05:31;7.45;;;3.35;;
10458;SDS011;5277;48.722;8.736;2023-02-23T12:08:19;7.75;;;3.80;;
10458;SDS011;5277;48.722;8.736;2023-02-23T12:11:02;8.68;;;3.92;;
10458;SDS011;5277;48.722;8.736;2023-02-23T12:13:47;11.55;;;4.45;;
10458;SDS011;5277;48.722;8.736;2023-02-23T12:16:28;9.27;;;3.25;;
10458;SDS011;5277;48.722;8.736;2023-02-23T12:19:40;10.68;;;3.70;;
10458;SDS011;5277;48.722;8.736;2023-02-23T12:25:45;7.10;;;3.47;;
10458;SDS011;5277;48.722;8.736;2023-02-23T12:31:36;9.15;;;3.60;;
10458;SDS011;5277;48.722;8.736;2023-02-23T12:34:56;7.55;;;3.20;;
10458;SDS011;5277;48.722;8.736;2023-02-23T12:37:25;6.53;;;3.50;;
10458;SDS011;5277;48.722;8.736;2023-02-23T12:49:10;5.00;;;3.22;;
10458;SDS011;5277;48.722;8.736;2023-02-23T12:54:54;5.38;;;3.38;;
10458;SDS011;5277;48.722;8.736;2023-02-23T13:00:56;7.25;;;2.72;;
10458;SDS011;5277;48.722;8.736;2023-02-23T13:03:52;5.68;;;2.90;;
10458;SDS011;5277;48.722;8.736;2023-02-23T13:07:11;5.80;;;2.78;;
10458;SDS011;5277;48.722;8.736;2023-02-23T13:10:24;5.13;;;2.60;;
10458;SDS011;5277;48.722;8.736;2023-02-23T13:32:21;4.07;;;2.30;;
10458;SDS011;5277;48.722;8.736;2023-02-23T13:41:38;7.32;;;2.95;;
10458;SDS011;5277;48.722;8.736;2023-02-23T13:44:47;6.70;;;3.47;;
10458;SDS011;5277;48.722;8.736;2023-02-23T13:48:30;8.82;;;4.20;;
10458;SDS011;5277;48.722;8.736;2023-02-23T13:53:59;7.10;;;3.75;;
10458;SDS011;5277;48.722;8.736;2023-02-23T13:57:09;8.38;;;3.75;;
10458;SDS011;5277;48.722;8.736;2023-02-23T13:59:58;7.55;;;3.65;;
10458;SDS011;5277;48.722;8.736;2023-02-23T14:02:53;6.30;;;3.83;;
10458;SDS011;5277;48.722;8.736;2023-02-23T14:05:43;7.20;;;3.05;;
10458;SDS011;5277;48.722;8.736;2023-02-23T14:08:38;5.53;;;2.80;;
10458;SDS011;5277;48.722;8.736;2023-02-23T14:15:26;8.95;;;3.17;;
10458;SDS011;5277;48.722;8.736;2023-02-23T14:27:37;4.28;;;2.55;;
10458;SDS011;5277;48.722;8.736;2023-02-23T14:30:48;4.35;;;2.53;;
10458;SDS011;5277;48.722;8.736;2023-02-23T14:36:40;4.95;;;2.20;;
10458;SDS011;5277;48.722;8.736;2023-02-23T14:39:29;5.47;;;3.17;;
10458;SDS011;5277;48.722;8.736;2023-02-23T14:45:53;7.72;;;2.92;;
10458;SDS011;5277;48.722;8.736;2023-02-23T14:48:38;5.78;;;2.80;;
10458;SDS011;5277;48.722;8.736;2023-02-23T14:57:34;7.60;;;3.03;;
10458;SDS011;5277;48.722;8.736;2023-02-23T15:00:10;5.20;;;2.90;;
10458;SDS011;5277;48.722;8.736;2023-02-23T15:03:06;5.03;;;2.97;;
10458;SDS011;5277;48.722;8.736;2023-02-23T15:06:00;6.63;;;3.90;;
10458;SDS011;5277;48.722;8.736;2023-02-23T15:08:29;8.73;;;4.53;;
10458;SDS011;5277;48.722;8.736;2023-02-23T15:11:23;8.25;;;3.95;;
10458;SDS011;5277;48.722;8.736;2023-02-23T15:14:15;7.53;;;4.20;;
10458;SDS011;5277;48.722;8.736;2023-02-23T15:17:00;4.90;;;2.90;;
10458;SDS011;5277;48.722;8.736;2023-02-23T15:22:24;4.25;;;2.60;;
10458;SDS011;5277;48.722;8.736;2023-02-23T15:25:18;7.32;;;3.30;;
10458;SDS011;5277;48.722;8.736;2023-02-23T15:27:50;6.15;;;2.45;;
10458;SDS011;5277;48.722;8.736;2023-02-23T15:33:00;6.05;;;2.50;;
10458;SDS011;5277;48.722;8.736;2023-02-23T15:38:36;6.20;;;4.38;;
10458;SDS011;5277;48.722;8.736;2023-02-23T15:41:36;5.78;;;4.78;;
10458;SDS011;5277;48.722;8.736;2023-02-23T15:47:34;6.00;;;3.63;;
10458;SDS011;5277;48.722;8.736;2023-02-23T15:55:52;7.32;;;4.22;;
10458;SDS011;5277;48.722;8.736;2023-02-23T15:58:55;7.88;;;4.20;;
10458;SDS011;5277;48.722;8.736;2023-02-23T16:04:41;5.85;;;4.03;;
10458;SDS011;5277;48.722;8.736;2023-02-23T16:07:25;7.85;;;4.35;;
10458;SDS011;5277;48.722;8.736;2023-02-23T16:10:18;7.55;;;4.55;;
10458;SDS011;5277;48.722;8.736;2023-02-23T16:12:49;8.00;;;4.60;;
10458;SDS011;5277;48.722;8.736;2023-02-23T16:15:22;5.65;;;4.50;;
10458;SDS011;5277;48.722;8.736;2023-02-23T16:17:58;7.30;;;4.50;;
10458;SDS011;5277;48.722;8.736;2023-02-23T16:20:39;11.65;;;4.93;;
10458;SDS011;5277;48.722;8.736;2023-02-23T16:23:44;6.80;;;4.90;;
10458;SDS011;5277;48.722;8.736;2023-02-23T16:26:18;8.68;;;5.40;;
10458;SDS011;5277;48.722;8.736;2023-02-23T16:28:51;9.13;;;4.95;;
10458;SDS011;5277;48.722;8.736;2023-02-23T16:31:25;8.45;;;5.38;;
10458;SDS011;5277;48.722;8.736;2023-02-23T16:34:22;10.15;;;5.75;;
10458;SDS011;5277;48.722;8.736;2023-02-23T16:36:59;9.82;;;6.00;;
10458;SDS011;5277;48.722;8.736;2023-02-23T16:39:39;8.40;;;5.70;;
10458;SDS011;5277;48.722;8.736;2023-02-23T16:42:31;10.93;;;5.70;;
10458;SDS011;5277;48.722;8.736;2023-02-23T16:45:02;12.13;;;5.90;;
10458;SDS011;5277;48.722;8.736;2023-02-23T16:47:49;12.25;;;5.50;;
10458;SDS011;5277;48.722;8.736;2023-02-23T16:50:38;7.55;;;4.95;;
10458;SDS011;5277;48.722;8.736;2023-02-23T16:53:07;8.50;;;4.88;;
10458;SDS011;5277;48.722;8.736;2023-02-23T16:55:36;20.73;;;5.70;;
10458;SDS011;5277;48.722;8.736;2023-02-23T16:58:14;11.07;;;5.50;;
10458;SDS011;5277;48.722;8.736;2023-02-23T17:00:45;16.75;;;5.88;;
10458;SDS011;5277;48.722;8.736;2023-02-23T17:03:18;12.90;;;5.53;;
10458;SDS011;5277;48.722;8.736;2023-02-23T17:05:52;10.50;;;5.60;;
10458;SDS011;5277;48.722;8.736;2023-02-23T17:08:23;15.25;;;5.25;;
10458;SDS011;5277;48.722;8.736;2023-02-23T17:10:50;12.38;;;5.50;;
10458;SDS011;5277;48.722;8.736;2023-02-23T17:20:07;14.10;;;5.72;;
10458;SDS011;5277;48.722;8.736;2023-02-23T17:39:44;15.77;;;7.18;;
10458;SDS011;5277;48.722;8.736;2023-02-23T17:42:13;20.65;;;7.28;;
10458;SDS011;5277;48.722;8.736;2023-02-23T17:44:42;10.75;;;6.38;;
10458;SDS011;5277;48.722;8.736;2023-02-23T17:47:10;14.00;;;6.65;;
10458;SDS011;5277;48.722;8.736;2023-02-23T17:49:38;14.23;;;7.65;;
10458;SDS011;5277;48.722;8.736;2023-02-23T17:52:09;10.35;;;7.00;;
10458;SDS011;5277;48.722;8.736;2023-02-23T17:54:35;11.15;;;6.50;;
10458;SDS011;5277;48.722;8.736;2023-02-23T17:57:08;12.48;;;7.28;;
10458;SDS011;5277;48.722;8.736;2023-02-23T17:59:40;11.00;;;8.00;;
10458;SDS011;5277;48.722;8.736;2023-02-23T18:02:05;13.02;;;6.95;;
10458;SDS011;5277;48.722;8.736;2023-02-23T18:04:34;18.35;;;7.70;;
10458;SDS011;5277;48.722;8.736;2023-02-23T18:07:04;14.63;;;7.68;;
10458;SDS011;5277;48.722;8.736;2023-02-23T18:09:33;17.45;;;9.05;;
10458;SDS011;5277;48.722;8.736;2023-02-23T18:12:07;19.60;;;8.65;;
10458;SDS011;5277;48.722;8.736;2023-02-23T18:14:36;15.20;;;8.95;;
10458;SDS011;5277;48.722;8.736;2023-02-23T18:17:04;21.13;;;9.27;;
10458;SDS011;5277;48.722;8.736;2023-02-23T18:19:33;17.60;;;8.38;;
10458;SDS011;5277;48.722;8.736;2023-02-23T18:21:59;14.80;;;8.63;;
10458;SDS011;5277;48.722;8.736;2023-02-23T18:24:25;14.13;;;7.68;;
10458;SDS011;5277;48.722;8.736;2023-02-23T18:27:02;16.65;;;8.85;;
10458;SDS011;5277;48.722;8.736;2023-02-23T18:29:36;21.17;;;9.63;;
10458;SDS011;5277;48.722;8.736;2023-02-23T18:32:10;15.30;;;8.68;;
10458;SDS011;5277;48.722;8.736;2023-02-23T18:34:50;16.98;;;8.50;;
10458;SDS011;5277;48.722;8.736;2023-02-23T18:37:16;13.43;;;8.57;;
10458;SDS011;5277;48.722;8.736;2023-02-23T18:39:52;13.40;;;8.55;;
10458;SDS011;5277;48.722;8.736;2023-02-23T18:42:24;15.27;;;9.70;;
10458;SDS011;5277;48.722;8.736;2023-02-23T18:44:52;19.80;;;10.25;;
10458;SDS011;5277;48.722;8.736;2023-02-23T18:47:20;20.23;;;10.30;;
10458;SDS011;5277;48.722;8.736;2023-02-23T18:49:49;21.38;;;10.50;;
10458;SDS011;5277;48.722;8.736;2023-02-23T18:52:20;20.45;;;11.18;;
10458;SDS011;5277;48.722;8.736;2023-02-23T18:54:52;18.27;;;10.40;;
10458;SDS011;5277;48.722;8.736;2023-02-23T18:57:20;19.63;;;10.40;;
10458;SDS011;5277;48.722;8.736;2023-02-23T18:59:57;24.63;;;11.38;;
10458;SDS011;5277;48.722;8.736;2023-02-23T19:02:33;21.52;;;10.63;;
10458;SDS011;5277;48.722;8.736;2023-02-23T19:05:31;18.75;;;10.68;;
10458;SDS011;5277;48.722;8.736;2023-02-23T19:08:07;15.00;;;10.18;;
10458;SDS011;5277;48.722;8.736;2023-02-23T19:10:42;19.95;;;10.30;;
10458;SDS011;5277;48.722;8.736;2023-02-23T19:13:14;21.60;;;11.07;;
10458;SDS011;5277;48.722;8.736;2023-02-23T19:15:56;24.60;;;12.13;;
10458;SDS011;5277;48.722;8.736;2023-02-23T19:18:23;21.10;;;11.85;;
10458;SDS011;5277;48.722;8.736;2023-02-23T19:20:51;20.17;;;10.57;;
10458;SDS011;5277;48.722;8.736;2023-02-23T19:23:38;22.38;;;11.27;;
10458;SDS011;5277;48.722;8.736;2023-02-23T19:26:11;17.55;;;10.85;;
10458;SDS011;5277;48.722;8.736;2023-02-23T19:28:42;23.88;;;12.30;;
10458;SDS011;5277;48.722;8.736;2023-02-23T19:31:12;20.65;;;11.30;;
10458;SDS011;5277;48.722;8.736;2023-02-23T19:33:41;26.20;;;11.50;;
10458;SDS011;5277;48.722;8.736;2023-02-23T19:36:15;18.70;;;11.55;;
10458;SDS011;5277;48.722;8.736;2023-02-23T19:38:43;19.98;;;11.75;;
10458;SDS011;5277;48.722;8.736;2023-02-23T19:41:21;22.45;;;11.18;;
10458;SDS011;5277;48.722;8.736;2023-02-23T19:43:52;17.10;;;9.68;;
10458;SDS011;5277;48.722;8.736;2023-02-23T19:46:18;19.10;;;10.32;;
10458;SDS011;5277;48.722;8.736;2023-02-23T19:48:47;25.50;;;13.77;;
10458;SDS011;5277;48.722;8.736;2023-02-23T19:51:23;22.65;;;13.75;;
10458;SDS011;5277;48.722;8.736;2023-02-23T19:53:53;24.92;;;12.98;;
10458;SDS011;5277;48.722;8.736;2023-02-23T19:56:20;20.95;;;13.27;;
10458;SDS011;5277;48.722;8.736;2023-02-23T19:58:48;21.23;;;12.38;;
10458;SDS011;5277;48.722;8.736;2023-02-23T20:01:16;25.08;;;13.32;;
10458;SDS011;5277;48.722;8.736;2023-02-23T20:03:44;22.77;;;11.93;;
10458;SDS011;5277;48.722;8.736;2023-02-23T20:06:14;19.27;;;11.43;;
10458;SDS011;5277;48.722;8.736;2023-02-23T20:08:42;19.55;;;11.13;;
10458;SDS011;5277;48.722;8.736;2023-02-23T20:11:08;18.42;;;11.32;;
10458;SDS011;5277;48.722;8.736;2023-02-23T20:13:35;17.40;;;11.10;;
10458;SDS011;5277;48.722;8.736;2023-02-23T20:16:03;22.98;;;11.45;;
10458;SDS011;5277;48.722;8.736;2023-02-23T20:18:29;17.02;;;10.25;;
10458;SDS011;5277;48.722;8.736;2023-02-23T20:20:57;17.48;;;10.68;;
10458;SDS011;5277;48.722;8.736;2023-02-23T20:23:23;20.45;;;10.75;;
10458;SDS011;5277;48.722;8.736;2023-02-23T20:25:48;17.83;;;9.98;;
10458;SDS011;5277;48.722;8.736;2023-02-23T20:28:14;15.75;;;9.82;;
10458;SDS011;5277;48.722;8.736;2023-02-23T20:30:43;19.60;;;10.80;;
10458;SDS011;5277;48.722;8.736;2023-02-23T20:33:10;19.73;;;11.50;;
10458;SDS011;5277;48.722;8.736;2023-02-23T20:35:37;19.23;;;10.95;;
10458;SDS011;5277;48.722;8.736;2023-02-23T20:38:03;16.20;;;10.77;;
10458;SDS011;5277;48.722;8.736;2023-02-23T20:40:29;16.15;;;11.23;;
10458;SDS011;5277;48.722;8.736;2023-02-23T20:42:54;23.98;;;11.35;;
10458;SDS011;5277;48.722;8.736;2023-02-23T20:45:20;22.42;;;12.27;;
10458;SDS011;5277;48.722;8.736;2023-02-23T20:47:47;20.77;;;11.77;;
10458;SDS011;5277;48.722;8.736;2023-02-23T20:50:20;23.40;;;12.95;;
10458;SDS011;5277;48.722;8.736;2023-02-23T20:52:47;22.45;;;12.75;;
10458;SDS011;5277;48.722;8.736;2023-02-23T20:55:13;24.08;;;12.55;;